Latest Weather Observations for Lucas Heights (ANSTO)

IDN60801

Issued at 11:23 pm EST Friday 16 April 2021 (issued every 10 minutes, with the page automatically refreshed every 10 minutes)

About weather observations | Map of weather stations | Latest weather observations for NSW | Other Formats
Station Details ID: 066023 Name: LUCAS HEIGHTS (ANSTO) Lat: -34.05 Lon: 150.98 Height: 140.0 m
Data from the previous 72 hours. | See also: Recent months for locations in New South Wales
Date/Time
EST
Temp
°C
App
Temp
°C
Dew
Point
°C
Rel
Hum
%
Delta-T
°C
Wind Press
QNH
hPa
Press
MSL
hPa
Rain since
9am
mm
Dir  Spd
km/h
Gust
km/h
Spd
kts
Gust
kts
16/11:00pm 15.0 13.4 8.8 66 3.2 E 7 9 4 5 1024.0 - 0.0
16/10:45pm 15.4 13.4 8.8 65 3.4 E 9 11 5 6 1024.0 - 0.0
16/10:30pm 15.3 13.3 8.8 65 3.3 E 9 9 5 5 1024.2 - 0.0
16/10:15pm 15.2 13.8 8.7 65 3.3 ESE 6 9 3 5 1024.2 - 0.0
16/10:00pm 15.3 14.3 8.7 64 3.4 SE 4 7 2 4 1024.3 - 0.0
16/09:45pm 15.3 13.9 8.8 65 3.3 E 6 7 3 4 1024.3 - 0.0
16/09:30pm 15.3 13.8 8.6 64 3.4 E 6 9 3 5 1024.3 - 0.0
16/09:15pm 15.3 13.2 8.3 63 3.6 E 9 11 5 6 1024.1 - 0.0
16/09:00pm 15.4 13.7 8.2 62 3.7 E 7 9 4 5 1024.0 - 0.0
16/08:45pm 15.5 13.4 8.4 62 3.6 E 9 11 5 6 1023.9 - 0.0
16/08:30pm 15.3 13.6 8.4 63 3.5 ESE 7 11 4 6 1023.9 - 0.0
16/08:15pm 15.0 12.9 8.3 64 3.4 ESE 9 15 5 8 1023.6 - 0.0
16/08:00pm 15.2 12.4 8.4 64 3.5 ESE 13 15 7 8 1023.5 - 0.0
16/07:15pm 15.3 12.5 8.4 63 3.5 ESE 13 20 7 11 1023.4 - 0.0
16/07:00pm 15.5 12.7 8.4 62 3.6 ESE 13 17 7 9 1023.4 - 0.0
16/06:45pm 15.5 12.7 8.5 63 3.6 ESE 13 17 7 9 1023.3 - 0.0
16/06:30pm 15.5 12.3 8.5 63 3.6 ESE 15 15 8 8 1023.1 - 0.0
16/06:15pm 15.6 12.8 8.5 62 3.6 ESE 13 17 7 9 1022.9 - 0.0
16/06:00pm 15.7 12.5 8.6 62 3.6 ESE 15 20 8 11 1022.5 - 0.0
16/05:45pm 15.8 12.3 8.7 62 3.6 SE 17 24 9 13 1022.3 - 0.0
16/05:30pm 15.8 12.7 8.9 63 3.6 ESE 15 24 8 13 1022.1 - 0.0
16/05:15pm 16.1 13.0 9.0 63 3.7 ESE 15 22 8 12 1021.9 - 0.0
16/05:00pm 16.3 11.9 9.0 62 3.8 SE 22 30 12 16 1021.8 - 0.0
16/04:45pm 16.6 11.4 9.0 61 3.9 ESE 26 33 14 18 1021.7 - 0.0
16/04:30pm 16.7 11.5 8.8 59 4.1 ESE 26 32 14 17 1021.6 - 0.0
16/04:15pm 17.0 11.9 9.1 59 4.1 SE 26 32 14 17 1021.5 - 0.0
16/04:00pm 17.2 12.1 9.2 59 4.2 ESE 26 32 14 17 1021.5 - 0.0
16/03:45pm 17.4 12.4 9.6 60 4.1 ESE 26 30 14 16 1021.3 - 0.0
16/03:30pm 17.5 12.9 9.5 59 4.2 SE 24 33 13 18 1021.3 - 0.0
16/03:15pm 17.5 12.9 9.6 60 4.2 SE 24 39 13 21 1021.2 - 0.0
16/03:00pm 17.5 11.7 9.6 60 4.2 SE 30 37 16 20 1021.1 - 0.0
16/02:45pm 17.8 12.9 9.8 59 4.3 ESE 26 35 14 19 1021.0 - 0.0
16/02:30pm 18.0 13.1 10.0 59 4.3 SE 26 35 14 19 1020.9 - 0.0
16/02:15pm 17.9 12.3 10.1 60 4.2 SE 30 37 16 20 1020.9 - 0.0
16/02:00pm 17.9 12.3 10.1 60 4.2 SE 30 37 16 20 1020.8 - 0.0
16/01:45pm 18.2 13.8 10.4 60 4.2 SE 24 35 13 19 1020.7 - 0.0
16/01:30pm 18.1 12.5 10.3 60 4.2 SE 30 37 16 20 1020.7 - 0.0
16/01:15pm 18.7 14.0 10.6 59 4.4 SE 26 35 14 19 1020.6 - 0.0
16/01:00pm 18.4 14.1 10.7 61 4.2 SSE 24 33 13 18 1020.8 - 0.0
16/12:45pm 18.0 13.6 10.5 61 4.0 SSE 24 30 13 16 1021.0 - 0.0
16/12:30pm 18.0 14.4 10.6 62 4.0 SSE 20 28 11 15 1021.1 - 0.0
16/12:15pm 18.1 14.1 10.6 61 4.1 SSE 22 30 12 16 1021.2 - 0.0
16/12:00pm 18.1 13.3 10.3 60 4.2 SSE 26 37 14 20 1021.3 - 0.0
16/11:45am 19.2 14.5 10.7 58 4.6 SSE 26 35 14 19 1021.2 - 0.0
16/11:30am 18.8 13.6 10.4 58 4.5 SSE 28 39 15 21 1021.2 - 0.0
16/11:15am 18.9 12.8 9.8 55 4.9 SSE 32 39 17 21 1021.2 - 0.0
16/11:00am 19.0 12.6 9.4 53 5.1 SSE 33 39 18 21 1021.3 - 0.0
16/10:45am 19.5 13.3 7.7 46 6.1 SSE 30 39 16 21 1021.1 - 0.0
16/10:30am 19.4 13.5 5.9 41 6.7 SE 26 35 14 19 1021.0 - 0.0
16/10:15am 19.8 13.4 5.3 38 7.2 SSE 28 39 15 21 1020.9 - 0.0
16/10:00am 20.0 14.1 3.8 34 7.8 SSE 24 32 13 17 1020.8 - 0.0
16/09:45am 19.5 13.2 3.8 35 7.5 SSE 26 33 14 18 1020.7 - 0.0
16/09:30am 19.8 15.1 5.1 38 7.2 SSE 19 28 10 15 1020.6 - 0.0
16/09:15am 19.6 15.9 6.1 41 6.8 S 15 24 8 13 1020.6 - 0.0
16/09:00am 18.7 16.2 6.6 45 6.1 S 9 15 5 8 1020.6 - 0.0
16/08:45am 17.6 14.2 6.0 46 5.7 S 13 17 7 9 1020.5 - 0.0
16/08:30am 17.3 13.5 5.9 47 5.6 S 15 17 8 9 1020.2 - 0.0
16/08:15am 16.6 12.4 5.7 48 5.3 SSW 17 20 9 11 1020.0 - 0.0
16/08:00am 15.7 11.1 5.5 50 4.9 SSW 19 20 10 11 1019.8 - 0.0
16/07:45am 15.2 11.3 5.2 51 4.8 SSW 15 17 8 9 1019.6 - 0.0
16/07:30am 14.3 10.6 4.7 52 4.5 SSW 13 15 7 8 1019.4 - 0.0
16/07:15am 13.5 9.4 4.3 53 4.2 SSW 15 17 8 9 1019.2 - 0.0
16/07:00am 12.9 8.3 3.8 54 4.1 SSW 17 17 9 9 1019.1 - 0.0
16/06:45am 13.1 7.6 3.8 53 4.2 SSW 22 22 12 12 1018.9 - 0.0
16/06:30am 13.3 7.4 3.7 52 4.4 SSW 24 26 13 14 1018.5 - 0.0
16/06:15am 13.8 7.9 3.7 50 4.6 SW 24 26 13 14 1018.3 - 0.0
16/06:00am 14.0 7.7 3.7 50 4.7 SSW 26 28 14 15 1018.0 - 0.0
16/05:45am 14.2 7.5 3.7 49 4.8 SSW 28 30 15 16 1017.8 - 0.0
16/05:30am 14.2 8.2 3.6 49 4.8 SSW 24 28 13 15 1017.7 - 0.0
16/05:15am 14.4 9.2 3.5 48 5.0 SSW 20 26 11 14 1017.3 - 0.0
16/05:00am 14.7 8.0 3.5 47 5.1 SSW 28 37 15 20 1016.8 - 0.0
16/04:45am 14.9 8.2 3.5 46 5.2 SSW 28 33 15 18 1016.7 - 0.0
16/04:30am 15.1 8.8 3.6 46 5.3 SSW 26 32 14 17 1016.8 - 0.0
16/04:15am 15.1 8.8 3.5 46 5.3 SSW 26 37 14 20 1016.5 - 0.0
16/04:00am 15.2 7.7 3.5 45 5.4 SW 32 37 17 20 1016.4 - 0.0
16/03:45am 15.3 8.6 3.5 45 5.4 SSW 28 33 15 18 1016.3 - 0.0
16/03:30am 15.4 9.1 3.5 45 5.5 SW 26 32 14 17 1016.0 - 0.0
16/03:15am 15.4 9.8 3.6 45 5.4 SSW 22 28 12 15 1016.0 - 0.0
16/03:00am 15.5 9.2 3.7 45 5.5 SW 26 30 14 16 1015.9 - 0.0
16/02:45am 15.6 9.7 3.7 45 5.5 SSW 24 28 13 15 1015.8 - 0.0
16/02:30am 15.8 9.1 3.7 44 5.6 SSW 28 39 15 21 1015.8 - 0.0
16/02:15am 15.9 9.6 3.7 44 5.7 SSW 26 32 14 17 1015.6 - 0.0
16/02:00am 16.0 9.3 3.8 44 5.7 SSW 28 35 15 19 1015.5 - 0.0
16/01:45am 16.1 9.4 3.7 43 5.8 SSW 28 35 15 19 1015.4 - 0.0
16/01:30am 16.2 9.5 3.7 43 5.8 SSW 28 39 15 21 1015.6 - 0.0
16/01:15am 16.2 9.5 3.8 43 5.8 SW 28 35 15 19 1015.6 - 0.0
16/01:00am 16.3 9.2 3.8 43 5.8 SSW 30 35 16 19 1015.5 - 0.0
16/12:45am 16.2 9.5 3.9 44 5.7 SSW 28 37 15 20 1015.7 - 0.0
16/12:30am 16.3 10.0 3.9 43 5.8 SSW 26 30 14 16 1015.7 - 0.0
16/12:15am 16.3 9.7 4.2 44 5.7 SW 28 32 15 17 1015.6 - 0.0
16/12:00am 16.2 9.3 4.6 46 5.5 SW 30 32 16 17 1015.5 - 0.0
 
Date/Time
EST
Temp
°C
App
Temp
°C
Dew
Point
°C
Rel
Hum
%
Delta-T
°C
Wind Press
QNH
hPa
Press
MSL
hPa
Rain since
9am
mm
Dir  Spd
km/h
Gust
km/h
Spd
kts
Gust
kts
15/11:45pm 16.5 10.4 4.6 45 5.7 SW 26 26 14 14 1015.4 - 0.0
15/11:30pm 17.0 10.8 4.5 43 5.9 SW 26 28 14 15 1015.5 - 0.0
15/11:15pm 17.2 11.1 4.7 43 6.0 SW 26 30 14 16 1015.5 - 0.0
15/11:00pm 17.6 11.5 4.7 42 6.2 WSW 26 30 14 16 1015.3 - 0.0
15/10:45pm 17.8 11.7 4.8 42 6.3 WSW 26 33 14 18 1015.3 - 0.0
15/10:30pm 17.9 12.2 4.8 42 6.3 WSW 24 30 13 16 1015.2 - 0.0
15/10:15pm 18.0 12.3 4.9 42 6.3 WSW 24 28 13 15 1015.4 - 0.0
15/10:00pm 18.0 13.1 4.9 42 6.3 WSW 20 26 11 14 1015.4 - 0.0
15/09:45pm 18.2 12.9 4.8 41 6.5 WSW 22 28 12 15 1015.4 - 0.0
15/09:30pm 18.5 12.7 4.6 40 6.7 WSW 24 26 13 14 1015.2 - 0.0
15/09:15pm 18.8 14.0 4.5 39 6.9 WSW 19 22 10 12 1015.3 - 0.0
15/09:00pm 19.0 12.8 4.4 38 7.0 SW 26 35 14 19 1015.2 - 0.0
15/08:45pm 18.9 10.7 4.5 38 6.9 WSW 37 43 20 23 1014.8 - 0.0
15/08:30pm 18.5 11.6 4.7 40 6.7 SW 30 35 16 19 1014.7 - 0.0
15/08:15pm 18.6 11.8 4.9 40 6.6 SW 30 32 16 17 1014.7 - 0.0
15/08:00pm 18.9 12.1 4.9 39 6.8 WSW 30 33 16 18 1014.6 - 0.0
15/07:45pm 18.9 12.5 5.1 40 6.7 SW 28 30 15 16 1014.7 - 0.0
15/07:30pm 18.9 12.9 5.2 40 6.7 SW 26 26 14 14 1014.5 - 0.0
15/07:15pm 18.8 13.2 5.3 41 6.6 SW 24 26 13 14 1014.4 - 0.0
15/07:00pm 18.9 14.0 5.1 40 6.7 SSW 20 22 11 12 1014.2 - 0.0
15/06:45pm 19.0 14.1 5.1 40 6.8 SW 20 20 11 11 1014.0 - 0.0
15/06:30pm 19.3 14.4 5.3 39 6.9 SW 20 20 11 11 1013.8 - 0.0
15/06:15pm 19.3 14.5 5.5 40 6.8 SW 20 20 11 11 1013.7 - 0.0
15/06:00pm 19.6 15.3 5.4 39 7.0 SW 17 17 9 9 1013.4 - 0.0
15/05:45pm 20.0 15.4 5.7 39 7.1 SW 19 20 10 11 1013.2 - 0.0
15/05:30pm 20.5 16.3 5.7 38 7.4 SW 17 17 9 9 1012.9 - 0.0
15/05:15pm 20.8 17.0 5.6 37 7.6 SW 15 15 8 8 1012.8 - 0.0
15/05:00pm 20.9 18.3 6.2 38 7.4 SW 9 13 5 7 1012.6 - 0.0
15/04:45pm 21.7 18.7 5.9 35 8.0 SW 11 13 6 7 1012.6 - 0.0
15/04:30pm 22.7 19.2 5.5 32 8.7 SW 13 13 7 7 1012.4 - 0.0
15/04:15pm 23.0 19.9 5.4 32 8.9 SW 11 15 6 8 1012.3 - 0.0
15/04:00pm 23.4 19.8 5.0 30 9.2 WSW 13 17 7 9 1012.4 - 0.0
15/03:45pm 23.1 19.4 4.6 30 9.2 WSW 13 17 7 9 1012.3 - 0.0
15/03:30pm 22.9 18.9 4.8 30 9.0 SW 15 20 8 11 1012.2 - 0.0
15/03:15pm 22.9 19.2 4.5 30 9.1 WSW 13 19 7 10 1012.3 - 0.0
15/03:00pm 23.3 18.8 4.2 29 9.4 WSW 17 24 9 13 1012.3 - 0.0
15/02:45pm 23.8 19.4 4.5 28 9.6 WSW 17 22 9 12 1012.2 - 0.0
15/02:30pm 23.5 19.0 4.4 29 9.5 W 17 22 9 12 1012.3 - 0.0
15/02:15pm 23.3 18.9 4.5 29 9.4 W 17 24 9 13 1012.4 - 0.0
15/02:00pm 23.6 20.0 4.8 29 9.4 W 13 22 7 12 1012.5 - 0.0
15/01:45pm 23.1 18.7 4.6 30 9.2 W 17 22 9 12 1012.7 - 0.0
15/01:30pm 23.0 18.9 4.6 30 9.2 WNW 15 20 8 11 1012.8 - 0.0
15/01:15pm 22.9 20.0 4.7 30 9.1 W 9 26 5 14 1013.0 - 0.0
15/01:00pm 23.2 19.6 5.2 31 9.1 WSW 13 20 7 11 1013.2 - 0.0
15/12:45pm 22.7 18.3 5.0 31 8.9 WNW 17 26 9 14 1013.3 - 0.0
15/12:30pm 22.7 18.7 5.0 31 8.9 WSW 15 22 8 12 1014.7 - 0.0
15/12:15pm 22.3 17.2 4.3 31 8.9 W 20 26 11 14 1014.7 - 0.0
15/12:00pm 22.3 18.0 5.1 32 8.6 SW 17 26 9 14 1014.0 - 0.0
15/11:45am 21.9 16.8 4.3 31 8.6 W 20 33 11 18 1015.3 - 0.0
15/11:30am 21.9 17.5 4.9 33 8.4 WSW 17 24 9 13 1015.1 - 0.0
15/11:15am 21.4 16.6 4.8 33 8.2 W 19 26 10 14 1015.0 - 0.0
15/11:00am 21.4 16.4 4.7 33 8.2 WSW 20 28 11 15 1015.2 - 0.0
15/10:45am 21.4 16.5 4.9 34 8.2 WSW 20 32 11 17 1016.0 - 0.0
15/10:30am 20.9 14.8 4.9 35 7.9 WSW 26 35 14 19 1016.4 - 0.0
15/10:15am 20.6 14.1 4.6 35 7.8 WSW 28 37 15 20 1016.9 - 0.0
15/10:00am 20.3 13.9 5.0 36 7.5 WSW 28 35 15 19 1017.0 - 0.0
15/09:45am 20.1 15.6 6.2 40 7.0 W 19 28 10 15 1016.6 - 0.0
15/09:30am 19.8 16.2 6.6 42 6.7 W 15 20 8 11 1016.8 - 0.0
15/09:15am 19.5 15.8 6.5 42 6.6 W 15 20 8 11 1016.8 - 0.0
15/09:00am 19.5 15.8 6.3 42 6.6 WSW 15 17 8 9 1016.7 - 0.0
15/08:45am 19.3 15.6 6.2 42 6.6 WSW 15 19 8 10 1016.8 - 0.0
15/08:30am 18.8 15.2 6.9 46 6.0 WSW 15 20 8 11 1016.9 - 0.0
15/08:15am 17.8 15.6 7.8 52 5.1 SW 9 15 5 8 1017.0 - 0.0
15/08:00am 16.8 14.9 7.4 54 4.7 SSW 7 9 4 5 1017.1 - 0.0
15/07:45am 16.1 14.0 6.7 53 4.6 S 7 9 4 5 1016.9 - 0.0
15/07:30am 15.5 12.9 5.9 52 4.6 SSW 9 11 5 6 1019.0 - 0.0
15/07:15am 14.1 10.7 5.7 57 4.0 SSW 13 13 7 7 1016.1 - 0.0
15/07:00am 13.6 9.7 5.4 57 3.9 SW 15 15 8 8 1015.1 - 0.0
15/06:45am 12.3 8.0 5.3 62 3.3 SW 17 17 9 9 1012.7 - 0.0
15/06:30am 11.6 6.9 5.2 65 3.0 SSW 19 17 10 9 1013.0 - 0.0
15/06:15am 11.9 8.0 5.2 63 3.1 SSW 15 17 8 9 1013.9 - 0.0
15/06:00am 12.5 9.3 5.3 61 3.4 S 11 13 6 7 1012.4 - 0.0
15/05:45am 12.5 9.3 5.2 61 3.4 SSE 11 13 6 7 1012.6 - 0.0
15/05:30am 12.8 9.3 5.3 60 3.5 S 13 15 7 8 1013.3 - 0.0
15/05:15am 13.0 9.1 5.5 60 3.5 S 15 17 8 9 1012.6 - 0.0
15/05:00am 13.5 9.2 5.3 57 3.9 S 17 17 9 9 1012.2 - 0.0
15/04:45am 14.6 10.3 5.1 53 4.5 S 17 20 9 11 1013.0 - 0.0
15/04:30am 15.2 10.0 5.3 51 4.7 S 22 24 12 13 1013.4 - 0.0
15/04:15am 14.9 10.6 5.1 52 4.6 S 17 19 9 10 1013.7 - 0.0
15/04:00am 16.4 12.1 5.3 47 5.3 S 17 24 9 13 1012.6 - 0.0
15/03:45am 15.7 10.1 5.4 50 4.9 S 24 28 13 15 1011.5 - 0.0
15/03:30am 14.5 9.7 4.8 52 4.6 S 19 24 10 13 1011.5 - 0.0
15/03:15am 15.6 10.7 5.2 50 5.0 S 20 28 11 15 1011.1 - 0.0
15/03:00am 14.2 8.4 4.5 52 4.5 S 24 28 13 15 1011.4 - 0.0
15/02:45am 13.5 7.9 3.5 51 4.5 S 22 26 12 14 1012.4 - 0.0
15/02:30am 13.6 8.5 3.0 48 4.8 SSE 19 22 10 12 1011.5 - 0.0
15/02:15am 14.4 10.0 2.7 45 5.2 SSE 15 15 8 8 1012.2 - 0.0
15/02:00am 14.8 10.3 2.4 43 5.5 SSE 15 15 8 8 1012.2 - 0.0
15/01:45am 15.4 11.7 2.4 41 5.8 SSE 11 13 6 7 1011.8 - 0.0
15/01:30am 15.9 12.2 2.1 39 6.2 SSW 11 15 6 8 1012.4 - 0.0
15/01:15am 15.5 11.8 2.1 40 6.0 S 11 13 6 7 1011.7 - 0.0
15/01:00am 15.7 12.0 2.1 40 6.1 SSW 11 11 6 6 1011.8 - 0.0
15/12:45am 16.5 12.7 2.0 37 6.5 SW 11 13 6 7 1012.1 - 0.0
15/12:30am 17.4 12.5 2.0 35 7.0 WSW 17 20 9 11 1011.1 - 0.0
15/12:15am 18.1 11.9 2.3 34 7.2 WSW 24 30 13 16 1012.1 - 0.0
15/12:00am 18.5 10.7 2.6 34 7.4 WSW 33 35 18 19 1012.0 - 0.0
 
Date/Time
EST
Temp
°C
App
Temp
°C
Dew
Point
°C
Rel
Hum
%
Delta-T
°C
Wind Press
QNH
hPa
Press
MSL
hPa
Rain since
9am
mm
Dir  Spd
km/h
Gust
km/h
Spd
kts
Gust
kts
14/11:45pm 18.5 10.3 2.7 35 7.3 WSW 35 35 19 19 1010.1 - 0.0
14/11:30pm 18.9 11.1 2.7 34 7.5 WSW 33 33 18 18 1010.4 - 0.0
14/11:15pm 18.5 10.9 2.9 35 7.3 WSW 32 32 17 17 1011.0 - 0.0
14/11:00pm 18.7 10.9 2.8 34 7.4 WSW 33 32 18 17 1011.7 - 0.0
14/10:45pm 18.9 11.3 2.9 34 7.5 WSW 32 30 17 16 1012.3 - 0.0
14/10:30pm 19.4 12.2 2.8 33 7.8 WSW 30 32 16 17 1012.6 - 0.0
14/10:15pm 19.2 11.4 3.1 34 7.6 WSW 33 32 18 17 1011.9 - 0.0
14/10:00pm 18.9 11.2 3.4 35 7.3 WSW 33 32 18 17 1011.3 - 0.0
14/09:45pm 18.7 11.6 3.8 37 7.1 WSW 30 30 16 16 1012.6 - 0.0
14/09:30pm 19.4 13.1 3.7 35 7.5 WSW 26 26 14 14 1011.8 - 0.0
14/09:15pm 19.8 14.8 3.6 34 7.7 WSW 19 24 10 13 1011.8 - 0.0
14/09:00pm 19.9 15.6 3.4 33 7.8 W 15 17 8 9 1012.3 - 0.0
14/08:45pm 20.0 15.7 3.3 33 7.9 WSW 15 17 8 9 1012.0 - 0.0
14/08:30pm 20.1 15.1 3.5 33 7.9 WSW 19 19 10 10 1011.8 - 0.0
14/08:15pm 20.6 15.4 3.4 32 8.2 WSW 20 20 11 11 1012.6 - 0.0
14/08:00pm 21.4 15.0 3.0 29 8.8 W 26 26 14 14 1011.0 - 0.0
14/07:45pm 21.9 15.0 2.7 28 9.1 W 28 26 15 14 1011.7 - 0.0
14/07:30pm 22.0 15.6 3.1 29 9.1 W 26 26 14 14 1011.9 - 0.0
14/07:15pm 21.7 15.7 3.6 30 8.8 W 24 26 13 14 1012.2 - 0.0
14/07:00pm 20.7 15.8 4.3 34 8.0 WSW 19 20 10 11 1010.4 - 0.0
14/06:45pm 20.8 16.7 4.4 34 8.0 SW 15 15 8 8 1011.6 - 0.0
14/06:30pm 21.3 16.8 4.2 32 8.3 SW 17 17 9 9 1010.3 - 0.0
14/06:15pm 21.1 16.7 5.0 35 8.0 SW 17 17 9 9 1010.5 - 0.0
14/06:00pm 20.8 18.0 5.2 36 7.7 SW 9 13 5 7 1010.4 - 0.0
14/05:45pm 21.2 18.3 4.8 34 8.1 W 9 11 5 6 1010.1 - 0.0
14/05:30pm 21.7 18.7 4.1 31 8.6 W 9 9 5 5 1010.1 - 0.0
14/05:15pm 23.1 20.2 4.7 30 9.2 WSW 9 11 5 6 1009.9 - 0.0
14/05:00pm 24.5 21.5 4.0 26 10.2 WSW 9 9 5 5 1009.9 - 0.0
14/04:45pm 24.9 22.1 2.9 24 10.7 W 7 9 4 5 1008.9 - 0.0
14/04:30pm 25.1 21.3 1.9 22 11.1 W 11 15 6 8 1011.1 - 0.0
14/04:15pm 25.6 20.6 1.4 20 11.6 W 17 22 9 12 1012.6 - 0.0
14/04:00pm 25.7 21.7 2.8 22 11.2 NW 13 17 7 9 1012.6 - 0.0
14/03:45pm 25.5 21.5 2.9 23 11.1 NW 13 17 7 9 1012.4 - 0.0
14/03:30pm 25.6 21.2 2.9 23 11.1 WNW 15 17 8 9 1012.3 - 0.0
14/03:15pm 25.7 22.7 4.3 25 10.8 WNW 9 17 5 9 1010.7 - 0.0
14/03:00pm 25.0 21.8 5.0 27 10.2 NW 11 15 6 8 1009.5 - 0.0
14/02:45pm 24.3 21.3 6.0 30 9.4 NNW 11 17 6 9 1009.3 - 0.0
14/02:30pm 24.0 20.4 5.0 29 9.6 NW 13 15 7 8 1010.9 - 0.0
14/02:15pm 24.2 20.9 4.5 28 9.9 WNW 11 15 6 8 1012.5 - 0.0
14/02:00pm 24.8 21.2 5.0 28 10.0 NW 13 19 7 10 1012.9 - 0.0
14/01:45pm 24.1 20.1 4.7 28 9.7 NW 15 24 8 13 1013.1 - 0.0
14/01:30pm 24.1 20.5 5.0 29 9.6 NNW 13 20 7 11 1013.1 - 0.0
14/01:15pm 23.6 19.8 3.7 27 9.8 NNW 13 20 7 11 1013.4 - 0.0
14/01:00pm 23.2 20.3 4.4 29 9.3 NNW 9 17 5 9 1013.9 - 0.0
14/12:45pm 22.2 18.5 4.5 31 8.7 NW 13 17 7 9 1013.4 - 0.0
14/12:30pm 22.2 18.5 4.4 31 8.8 NW 13 22 7 12 1012.7 - 0.0
14/12:15pm 21.7 17.5 5.6 35 8.1 NW 17 20 9 11 1012.1 - 0.0
14/12:00pm 21.3 18.4 6.3 37 7.6 NW 11 17 6 9 1013.2 - 0.0
14/11:45am 21.2 16.9 5.3 35 7.9 NW 17 19 9 10 1015.0 - 0.0
14/11:30am 21.9 18.6 6.3 36 8.0 NW 13 17 7 9 1014.9 - 0.0
14/11:15am 21.4 18.1 6.6 38 7.6 NW 13 17 7 9 1014.8 - 0.0
14/11:00am 21.7 17.6 6.4 37 7.8 NW 17 22 9 12 1014.9 - 0.0
14/10:45am 21.1 18.5 7.6 41 7.0 NW 11 17 6 9 1015.1 - 0.0
14/10:30am 19.5 15.9 6.6 43 6.5 NW 15 20 8 11 1015.7 - 0.0
14/10:15am 19.6 16.5 7.1 44 6.4 WNW 13 17 7 9 1015.5 - 0.0
14/10:00am 19.1 16.4 7.3 46 6.0 WNW 11 15 6 8 1015.9 - 0.0
14/09:45am 18.8 16.1 7.4 47 5.8 NW 11 15 6 8 1015.7 - 0.0
14/09:30am 17.5 14.9 7.7 52 5.0 WNW 11 17 6 9 1015.6 - 0.0
14/09:15am 15.5 12.4 7.1 57 4.2 WNW 13 17 7 9 1016.2 - 0.0
14/09:00am 14.9 11.3 6.8 58 4.0 WNW 15 19 8 10 1016.2 - 0.0
14/08:45am 14.7 10.8 6.9 59 3.8 W 17 20 9 11 1016.8 - 0.0
14/08:30am 15.0 11.4 6.6 57 4.1 W 15 20 8 11 1016.2 - 0.0
14/08:15am 15.6 11.6 6.8 56 4.3 W 17 22 9 12 1016.0 - 0.0
14/08:00am 14.6 10.3 6.8 59 3.8 W 19 26 10 14 1016.0 - 0.0
14/07:45am 13.6 9.2 6.5 62 3.4 W 19 26 10 14 1016.1 - 0.0
14/07:30am 13.0 8.0 6.3 64 3.2 W 22 28 12 15 1015.4 - 0.0
14/07:15am 12.5 7.4 6.2 65 3.0 WNW 22 26 12 14 1013.7 - 0.0
14/07:00am 11.8 6.4 6.3 69 2.6 WNW 24 26 13 14 1012.7 - 0.0
14/06:45am 11.4 6.4 6.4 71 2.4 W 22 26 12 14 1012.3 - 0.0
14/06:30am 11.2 5.8 6.5 73 2.2 W 24 24 13 13 1012.3 - 0.0
14/06:15am 11.1 5.8 6.6 74 2.1 W 24 26 13 14 1012.4 - 0.0
14/06:00am 11.2 5.9 6.6 73 2.2 W 24 24 13 13 1012.6 - 0.0
14/05:45am 11.1 6.2 6.7 74 2.1 W 22 26 12 14 1013.0 - 0.0
14/05:30am 11.0 6.4 6.6 74 2.1 W 20 22 11 12 1013.4 - 0.0
14/05:15am 11.3 6.7 6.7 73 2.2 W 20 22 11 12 1013.6 - 0.0
14/05:00am 11.8 7.3 6.8 71 2.4 W 20 22 11 12 1013.5 - 0.0
14/04:45am 11.8 7.4 6.7 71 2.4 WNW 19 20 10 11 1013.4 - 0.0
14/04:30am 11.8 7.5 6.8 71 2.4 WNW 19 17 10 9 1013.4 - 0.0
14/04:15am 12.0 7.7 7.0 71 2.4 WNW 19 19 10 10 1013.5 - 0.0
14/04:00am 11.9 7.6 7.0 72 2.4 WNW 19 19 10 10 1013.6 - 0.0
14/03:45am 12.0 8.1 7.1 72 2.4 WNW 17 19 9 10 1013.9 - 0.0
14/03:30am 11.7 7.8 7.1 73 2.2 WNW 17 17 9 9 1013.8 - 0.0
14/03:15am 11.9 8.0 7.2 73 2.3 WNW 17 17 9 9 1012.8 - 0.0
14/03:00am 11.9 7.7 7.4 74 2.2 W 19 20 10 11 1013.3 - 0.0
14/02:45am 12.1 7.9 7.6 74 2.2 W 19 20 10 11 1013.7 - 0.0
14/02:30am 12.7 8.6 7.8 72 2.4 W 19 20 10 11 1013.9 - 0.0
14/02:15am 12.8 8.5 8.0 72 2.4 WNW 20 22 11 12 1014.0 - 0.0
14/02:00am 12.7 8.5 8.1 73 2.3 WNW 20 20 11 11 1014.3 - 0.0
14/01:45am 12.9 8.9 8.3 73 2.3 WNW 19 20 10 11 1014.5 - 0.0
14/01:30am 12.8 8.6 8.3 74 2.2 NW 20 20 11 11 1014.8 - 0.0
14/01:15am 13.0 8.5 8.5 74 2.3 NW 22 20 12 11 1015.0 - 0.0
14/01:00am 13.1 9.0 8.7 74 2.2 WNW 20 20 11 11 1015.1 - 0.0
14/12:45am 13.1 9.1 9.0 76 2.1 WNW 20 20 11 11 1015.1 - 0.0
14/12:30am 13.2 9.5 9.4 78 1.9 WNW 19 19 10 10 1015.2 - 0.0
14/12:15am 12.8 9.8 9.4 80 1.7 WNW 15 15 8 8 1015.7 - 0.0
14/12:00am 12.9 10.4 9.6 80 1.7 WNW 13 13 7 7 1016.3 - 0.0
 
Date/Time
EST
Temp
°C
App
Temp
°C
Dew
Point
°C
Rel
Hum
%
Delta-T
°C
Wind Press
QNH
hPa
Press
MSL
hPa
Rain since
9am
mm
Dir  Spd
km/h
Gust
km/h
Spd
kts
Gust
kts
13/11:45pm 12.7 10.2 9.6 81 1.6 NW 13 13 7 7 1016.3 - 0.0
13/11:30pm 12.4 9.8 9.4 82 1.5 NW 13 13 7 7 1015.5 - 0.0

Other formats

Comma delimited format used in spreadsheet applications
http://www.bom.gov.au/fwo/IDN60801/IDN60801.95757.axf

JavaScript Object Notation format (JSON) in row-major order
http://www.bom.gov.au/fwo/IDN60801/IDN60801.95757.json

Data quality

Most of these data are generated automatically and are frequently updated. Quality checks on data are not normally performed. It is possible for incorrect values to appear. Refer to information at About Latest Weather Observations and please check the disclaimer before using these data.